Terminal Aerodrome Forecast
Issued by NWS Charleston, WV

Current Version | Previous Version | Graphics & Text | Print | Product List | Glossary On
Versions: 1 2 3 4 5 6 7 8 9 10 11 12 13 14 15 16 17 18 19 20 21
000
FTUS41 KRLX 012300
TAFPKB
TAF
KPKB 012330Z 0200/0224 19006KT 3SM -RA BR BKN005 OVC015
     FM020300 27004KT 4SM -RA BR OVC008
     FM020600 27004KT 6SM BR OVC010
     FM020800 28005KT P6SM BKN015
     FM021400 31005KT P6SM BKN025
     FM021700 31005KT P6SM SCT025=

USA.gov is the U.S. government's official web portal to all federal, state and local government web resources and services.